createdAt,value
2022-08-16T00:00:03.231Z,15.18
2022-08-16T00:02:57.962Z,15.35
2022-08-16T00:05:28.710Z,13.85
2022-08-16T00:08:05.687Z,15.23
2022-08-16T00:10:35.671Z,16.88
2022-08-16T00:13:07.491Z,14.23
2022-08-16T00:15:52.132Z,12.93
2022-08-16T00:18:29.541Z,15.38
2022-08-16T00:21:01.761Z,14.05
2022-08-16T00:23:34.497Z,17.73
2022-08-16T00:26:35.066Z,17.48
2022-08-16T00:28:59.365Z,17.00
2022-08-16T00:31:59.352Z,17.80
2022-08-16T00:34:22.518Z,14.48
2022-08-16T00:37:17.160Z,14.38
2022-08-16T00:39:57.147Z,16.38
2022-08-16T00:42:31.701Z,14.00
2022-08-16T00:45:08.420Z,17.17
2022-08-16T00:47:49.483Z,17.92
2022-08-16T00:50:21.764Z,13.90
2022-08-16T00:53:09.055Z,15.57
2022-08-16T00:55:43.782Z,17.10
2022-08-16T00:58:16.458Z,14.70
2022-08-16T01:01:08.345Z,13.63
2022-08-16T01:03:41.397Z,13.95
2022-08-16T01:06:39.780Z,16.98
2022-08-16T01:09:06.758Z,15.82
2022-08-16T01:11:53.865Z,19.50
2022-08-16T01:14:30.059Z,18.85
2022-08-16T01:17:01.983Z,13.73
2022-08-16T01:19:34.927Z,15.30
2022-08-16T01:22:47.606Z,16.05
2022-08-16T01:25:06.588Z,15.57
2022-08-16T01:27:44.317Z,13.93
2022-08-16T01:30:20.355Z,15.02
2022-08-16T01:33:15.026Z,15.15
2022-08-16T01:35:52.649Z,16.95
2022-08-16T01:38:28.308Z,15.77
2022-08-16T01:41:02.996Z,14.57
2022-08-16T01:43:35.248Z,17.92
2022-08-16T01:46:37.766Z,19.40
2022-08-16T01:49:00.102Z,21.73
2022-08-16T01:51:31.558Z,16.63
2022-08-16T01:54:02.349Z,15.90
2022-08-16T01:56:40.941Z,13.32
2022-08-16T01:59:15.696Z,16.65
2022-08-16T02:01:52.526Z,13.13
2022-08-16T02:04:49.190Z,20.00
2022-08-16T02:07:23.762Z,13.93
2022-08-16T02:09:57.148Z,16.27
2022-08-16T02:12:50.426Z,17.58
2022-08-16T02:15:25.193Z,13.93
2022-08-16T02:17:56.614Z,20.13
2022-08-16T02:20:27.794Z,14.40
2022-08-16T02:22:58.263Z,17.10
2022-08-16T02:25:52.708Z,14.57
2022-08-16T02:28:20.241Z,15.45
2022-08-16T02:30:54.175Z,16.50
2022-08-16T02:33:44.642Z,14.82
2022-08-16T02:36:42.450Z,17.67
2022-08-16T02:39:22.975Z,12.75
2022-08-16T02:41:53.863Z,15.73
2022-08-16T02:44:27.025Z,15.13
2022-08-16T02:46:58.057Z,17.23
2022-08-16T02:49:58.348Z,14.75
2022-08-16T02:52:24.682Z,16.17
2022-08-16T02:54:57.486Z,16.33
2022-08-16T02:57:27.596Z,16.70
2022-08-16T03:00:00.142Z,15.48
2022-08-16T03:02:33.247Z,15.00
2022-08-16T03:05:11.448Z,16.60
2022-08-16T03:07:44.034Z,16.35
2022-08-16T03:14:07.297Z,18.23
2022-08-16T03:16:58.628Z,16.67
2022-08-16T03:19:47.322Z,18.48
2022-08-16T03:22:28.287Z,15.15
2022-08-16T03:25:07.462Z,17.75
2022-08-16T03:27:41.158Z,14.52
2022-08-16T03:30:19.898Z,14.60
2022-08-16T03:35:32.841Z,15.82
2022-08-16T03:38:32.559Z,14.35
2022-08-16T03:41:17.136Z,19.13
2022-08-16T03:43:55.767Z,16.00
2022-08-16T03:46:48.403Z,18.95
2022-08-16T03:49:20.272Z,19.08
2022-08-16T03:51:53.519Z,19.88
2022-08-16T03:54:30.896Z,15.75
2022-08-16T03:57:00.444Z,17.98
2022-08-16T03:59:31.519Z,20.52
2022-08-16T04:02:12.226Z,20.98
2022-08-16T04:04:55.290Z,18.27
2022-08-16T04:07:26.816Z,15.18
2022-08-16T04:10:36.397Z,18.25
2022-08-16T04:12:59.476Z,16.50
2022-08-16T04:15:34.874Z,15.63
2022-08-16T04:18:15.677Z,23.08
2022-08-16T04:20:46.256Z,17.40
2022-08-16T04:23:17.287Z,15.50
2022-08-16T04:25:47.846Z,15.00
2022-08-16T04:28:52.358Z,18.58
2022-08-16T04:31:10.765Z,24.75
2022-08-16T04:33:51.015Z,21.35
2022-08-16T04:36:26.194Z,21.50
2022-08-16T04:38:56.227Z,19.13
2022-08-16T04:41:32.592Z,23.58
2022-08-16T04:44:31.094Z,21.35
2022-08-16T04:47:00.674Z,20.73
2022-08-16T04:49:43.598Z,19.27
2022-08-16T04:52:34.647Z,19.00
2022-08-16T04:55:09.757Z,21.23
2022-08-16T04:57:42.845Z,18.23
2022-08-16T05:00:30.962Z,24.52
2022-08-16T05:03:21.980Z,21.98
2022-08-16T05:05:59.778Z,22.60
2022-08-16T05:08:38.210Z,17.42
2022-08-16T05:11:25.164Z,23.95
2022-08-16T05:14:06.918Z,20.80
2022-08-16T05:16:38.929Z,19.85
2022-08-16T05:19:13.316Z,19.67
2022-08-16T05:22:05.749Z,21.02
2022-08-16T05:24:40.369Z,19.70
2022-08-16T05:27:13.438Z,18.52
2022-08-16T05:29:59.244Z,23.08
2022-08-16T05:32:32.257Z,30.13
2022-08-16T05:35:07.783Z,24.33
2022-08-16T05:37:44.844Z,27.60
2022-08-16T05:40:18.627Z,25.90
2022-08-16T05:42:49.340Z,33.15
2022-08-16T05:45:22.160Z,29.63
2022-08-16T05:48:00.127Z,28.00
2022-08-16T05:50:53.017Z,26.52
2022-08-16T05:53:24.246Z,32.80
2022-08-16T05:56:19.458Z,27.85
2022-08-16T05:58:50.256Z,28.38
2022-08-16T06:01:20.489Z,27.60
2022-08-16T06:03:53.469Z,30.05
2022-08-16T06:06:34.602Z,30.15
2022-08-16T06:09:06.366Z,30.45
2022-08-16T06:11:39.853Z,27.90
2022-08-16T06:14:13.225Z,25.20
2022-08-16T06:16:50.560Z,36.83
2022-08-16T06:19:21.455Z,26.25
2022-08-16T06:22:02.295Z,27.17
2022-08-16T06:24:52.569Z,27.02
2022-08-16T06:27:24.667Z,28.13
2022-08-16T06:29:54.370Z,30.77
2022-08-16T06:32:27.158Z,25.90
2022-08-16T06:35:02.798Z,30.35
2022-08-16T06:37:37.442Z,27.52
2022-08-16T06:40:13.089Z,28.55
2022-08-16T06:42:57.185Z,29.42
2022-08-16T06:45:38.083Z,26.38
2022-08-16T06:48:18.907Z,25.50
2022-08-16T06:50:52.078Z,26.40
2022-08-16T06:53:22.888Z,27.92
2022-08-16T06:56:14.512Z,26.80
2022-08-16T06:59:10.877Z,26.20
2022-08-16T07:01:50.790Z,25.58
2022-08-16T07:04:33.359Z,27.25
2022-08-16T07:07:17.021Z,32.30
2022-08-16T07:09:46.130Z,29.67
2022-08-16T07:12:15.518Z,23.25
2022-08-16T07:14:49.104Z,27.85
2022-08-16T07:17:21.747Z,27.92
2022-08-16T07:20:29.877Z,26.50
2022-08-16T07:22:58.695Z,28.52
2022-08-16T07:25:46.282Z,28.13
2022-08-16T07:28:20.744Z,29.88
2022-08-16T07:30:57.578Z,26.30
2022-08-16T07:33:53.323Z,30.42
2022-08-16T07:36:31.764Z,25.20
2022-08-16T07:39:01.838Z,34.35
2022-08-16T07:41:36.874Z,24.92
2022-08-16T07:44:16.187Z,30.20
2022-08-16T07:46:55.445Z,25.75
2022-08-16T07:49:27.128Z,25.20
2022-08-16T07:54:53.118Z,27.95
2022-08-16T07:57:24.238Z,29.30
2022-08-16T07:59:57.113Z,25.88
2022-08-16T08:02:28.512Z,26.35
2022-08-16T08:05:00.642Z,25.33
2022-08-16T08:07:34.046Z,25.25
2022-08-16T08:10:11.319Z,29.73
2022-08-16T08:12:42.082Z,29.45
2022-08-16T08:15:15.423Z,25.20
2022-08-16T08:17:56.652Z,26.52
2022-08-16T08:20:47.096Z,28.88
2022-08-16T08:23:30.507Z,25.45
2022-08-16T08:26:00.688Z,22.20
2022-08-16T08:28:32.266Z,25.48
2022-08-16T08:31:05.857Z,26.80
2022-08-16T08:33:43.778Z,23.15
2022-08-16T08:36:24.994Z,28.58
2022-08-16T08:39:12.869Z,24.70
2022-08-16T08:41:43.607Z,20.48
2022-08-16T08:44:28.323Z,21.90
2022-08-16T08:47:04.749Z,22.40
2022-08-16T08:49:46.529Z,22.63
2022-08-16T08:52:47.877Z,19.60
2022-08-16T08:55:13.593Z,23.60
2022-08-16T08:57:47.646Z,20.17
2022-08-16T09:00:51.222Z,26.38
2022-08-16T09:03:22.526Z,20.23
2022-08-16T09:05:54.282Z,21.40
2022-08-16T09:08:26.545Z,20.10
2022-08-16T09:11:07.479Z,18.15
2022-08-16T09:13:38.660Z,21.42
2022-08-16T09:17:01.109Z,19.35
2022-08-16T09:21:40.711Z,19.80
2022-08-16T09:24:11.704Z,17.35
2022-08-16T09:27:00.924Z,17.45
2022-08-16T09:29:44.366Z,23.27
2022-08-16T09:32:28.912Z,18.42
2022-08-16T09:35:01.616Z,19.45
2022-08-16T09:37:36.717Z,19.23
2022-08-16T09:40:31.863Z,19.85
2022-08-16T09:42:59.742Z,21.63
2022-08-16T09:45:30.223Z,19.17
2022-08-16T09:48:00.500Z,19.95
2022-08-16T09:50:37.076Z,21.63
2022-08-16T09:53:14.724Z,19.88
2022-08-16T09:55:48.978Z,20.33
2022-08-16T09:58:40.755Z,16.17
2022-08-16T10:01:11.286Z,18.40
2022-08-16T10:04:01.896Z,20.52
2022-08-16T10:06:33.882Z,23.00
2022-08-16T10:09:08.393Z,13.95
2022-08-16T10:12:11.435Z,16.70
2022-08-16T10:14:47.234Z,17.02
2022-08-16T10:17:17.228Z,20.52
2022-08-16T10:19:47.353Z,15.43
2022-08-16T10:22:22.919Z,16.48
2022-08-16T10:24:56.089Z,18.45
2022-08-16T10:27:45.744Z,16.85
2022-08-16T10:30:25.603Z,19.30
2022-08-16T10:32:58.423Z,20.60
2022-08-16T10:35:32.957Z,17.27
2022-08-16T10:38:02.697Z,15.15
2022-08-16T10:40:37.653Z,17.88
2022-08-16T10:43:08.368Z,17.20
2022-08-16T10:45:57.263Z,14.32
2022-08-16T10:48:31.210Z,16.60
2022-08-16T10:51:00.753Z,13.13
2022-08-16T10:53:34.065Z,20.85
2022-08-16T10:56:56.002Z,17.13
2022-08-16T10:59:29.645Z,16.90
2022-08-16T11:10:57.156Z,14.60
2022-08-16T11:16:25.686Z,13.38
2022-08-16T11:19:04.598Z,16.73
2022-08-16T11:21:37.668Z,13.60
2022-08-16T11:24:39.632Z,11.57
2022-08-16T11:27:23.323Z,11.73
2022-08-16T11:29:57.013Z,14.32
2022-08-16T11:32:31.621Z,13.43
2022-08-16T11:35:13.824Z,15.52
2022-08-16T11:38:46.948Z,16.20
2022-08-16T11:40:52.207Z,11.90
2022-08-16T11:43:26.585Z,12.90
2022-08-16T11:46:01.472Z,14.02
2022-08-16T11:48:50.890Z,12.18
2022-08-16T11:51:20.666Z,14.48
2022-08-16T11:53:49.620Z,14.48
2022-08-16T11:56:37.588Z,14.43
2022-08-16T11:59:12.788Z,17.05
2022-08-16T12:01:44.506Z,14.85
2022-08-16T12:04:28.671Z,16.38
2022-08-16T12:06:59.334Z,14.68
2022-08-16T12:09:29.676Z,12.90
2022-08-16T12:12:02.696Z,13.52
2022-08-16T12:14:35.223Z,15.27
2022-08-16T12:17:08.454Z,18.42
2022-08-16T12:19:38.296Z,11.18
2022-08-16T12:22:18.834Z,10.95
2022-08-16T12:24:51.870Z,15.82
2022-08-16T12:27:24.049Z,16.63
2022-08-16T12:29:53.786Z,11.70
2022-08-16T12:32:38.166Z,10.80
2022-08-16T12:35:13.335Z,14.23
2022-08-16T12:37:46.171Z,16.40
2022-08-16T12:40:24.536Z,13.25
2022-08-16T12:42:58.965Z,18.38
2022-08-16T12:45:30.894Z,17.52
2022-08-16T12:48:33.855Z,15.60
2022-08-16T12:51:05.065Z,13.18
2022-08-16T12:53:43.622Z,14.13
2022-08-16T12:56:13.866Z,14.48
2022-08-16T12:58:49.421Z,13.73
2022-08-16T13:01:22.409Z,15.85
2022-08-16T13:04:11.633Z,13.25
2022-08-16T13:06:45.689Z,13.98
2022-08-16T13:09:20.276Z,13.25
2022-08-16T13:12:00.283Z,12.48
2022-08-16T13:14:34.233Z,15.05
2022-08-16T13:17:06.728Z,11.35
2022-08-16T13:20:06.525Z,14.48
2022-08-16T13:22:27.956Z,12.90
2022-08-16T13:24:57.135Z,12.85
2022-08-16T13:27:34.914Z,13.70
2022-08-16T13:30:36.393Z,13.98
2022-08-16T13:33:11.499Z,12.80
2022-08-16T13:35:56.098Z,11.60
2022-08-16T13:38:37.131Z,12.70
2022-08-16T13:41:08.890Z,13.90
2022-08-16T13:43:38.985Z,18.88
2022-08-16T13:46:09.001Z,20.85
2022-08-16T13:48:43.933Z,21.60
2022-08-16T13:51:18.411Z,24.05
2022-08-16T13:53:54.406Z,21.98
2022-08-16T13:56:37.122Z,14.82
2022-08-16T13:59:19.341Z,13.38
2022-08-16T14:01:55.045Z,11.63
2022-08-16T14:04:27.721Z,10.80
2022-08-16T14:06:59.982Z,12.65
2022-08-16T14:09:30.150Z,10.50
2022-08-16T14:12:00.843Z,11.73
2022-08-16T14:14:31.542Z,12.02
2022-08-16T14:17:02.959Z,12.02
2022-08-16T14:19:32.132Z,11.32
2022-08-16T14:22:13.682Z,10.73
2022-08-16T14:24:46.978Z,11.80
2022-08-16T14:27:17.991Z,14.05
2022-08-16T14:29:49.413Z,11.32
2022-08-16T14:32:32.715Z,12.48
2022-08-16T14:35:04.290Z,11.63
2022-08-16T14:37:35.878Z,11.50
2022-08-16T14:40:06.063Z,12.73
2022-08-16T14:42:36.771Z,16.55
2022-08-16T14:45:07.605Z,12.02
2022-08-16T14:47:38.557Z,14.52
2022-08-16T14:50:09.931Z,14.38
2022-08-16T14:52:55.145Z,16.65
2022-08-16T14:55:26.478Z,13.25
2022-08-16T14:57:56.320Z,12.35
2022-08-16T15:00:32.853Z,11.45
2022-08-16T15:03:09.693Z,14.88
2022-08-16T15:05:40.927Z,11.93
2022-08-16T15:08:11.642Z,10.52
2022-08-16T15:10:42.796Z,10.10
2022-08-16T15:13:16.345Z,10.82
2022-08-16T15:15:56.318Z,10.45
2022-08-16T15:18:31.735Z,11.07
2022-08-16T15:21:02.458Z,7.57
2022-08-16T15:23:33.585Z,6.90
2022-08-16T15:26:08.493Z,11.30
2022-08-16T15:28:38.328Z,8.23
2022-08-16T15:31:09.721Z,11.48
2022-08-16T15:33:42.685Z,8.35
2022-08-16T15:36:18.299Z,7.60
2022-08-16T15:39:01.969Z,8.35
2022-08-16T15:41:58.224Z,9.20
2022-08-16T15:44:37.704Z,9.25
2022-08-16T15:47:16.448Z,9.00
2022-08-16T15:49:54.668Z,7.22
2022-08-16T15:52:29.953Z,5.70
2022-08-16T15:55:07.354Z,6.82
2022-08-16T15:57:42.622Z,6.40
2022-08-16T16:00:14.612Z,7.78
2022-08-16T16:02:45.268Z,6.97
2022-08-16T16:05:15.220Z,7.57
2022-08-16T16:07:56.531Z,8.10
2022-08-16T16:10:38.086Z,6.57
2022-08-16T16:13:09.546Z,8.70
2022-08-16T16:15:41.230Z,6.40
2022-08-16T16:18:12.091Z,7.70
2022-08-16T16:20:43.878Z,8.02
2022-08-16T16:23:14.062Z,8.43
2022-08-16T16:25:47.052Z,7.40
2022-08-16T16:29:05.821Z,8.80
2022-08-16T16:31:15.719Z,7.47
2022-08-16T16:33:47.887Z,8.95
2022-08-16T16:36:25.573Z,8.32
2022-08-16T16:38:58.520Z,6.40
2022-08-16T16:41:32.521Z,7.35
2022-08-16T16:44:02.869Z,6.78
2022-08-16T16:46:42.487Z,6.13
2022-08-16T16:49:14.708Z,9.05
2022-08-16T16:51:49.699Z,8.95
2022-08-16T16:54:27.949Z,10.52
2022-08-16T16:57:01.193Z,9.93
2022-08-16T16:59:29.522Z,6.60
2022-08-16T17:02:46.104Z,7.88
2022-08-16T17:04:50.093Z,7.75
2022-08-16T17:07:20.613Z,9.55
2022-08-16T17:09:53.694Z,10.90
2022-08-16T17:12:47.177Z,7.38
2022-08-16T17:15:14.935Z,8.95
2022-08-16T17:17:59.738Z,6.13
2022-08-16T17:20:31.452Z,7.35
2022-08-16T17:23:01.176Z,9.07
2022-08-16T17:25:36.418Z,6.85
2022-08-16T17:28:57.610Z,8.93
2022-08-16T17:30:58.579Z,7.50
2022-08-16T17:33:28.689Z,23.23
2022-08-16T17:36:08.667Z,12.55
2022-08-16T17:38:44.689Z,14.40
2022-08-16T17:41:16.326Z,10.85
2022-08-16T17:43:47.026Z,14.57
2022-08-16T17:46:51.211Z,13.23
2022-08-16T17:49:06.357Z,12.88
2022-08-16T17:51:35.563Z,14.80
2022-08-16T17:54:04.696Z,12.93
2022-08-16T17:56:34.292Z,11.98
2022-08-16T17:59:05.105Z,12.02
2022-08-16T18:01:34.313Z,16.98
2022-08-16T18:04:09.083Z,12.45
2022-08-16T18:06:39.791Z,13.73
2022-08-16T18:09:10.347Z,12.25
2022-08-16T18:11:41.086Z,13.80
2022-08-16T18:14:13.256Z,11.73
2022-08-16T18:16:43.004Z,13.60
2022-08-16T18:19:12.210Z,13.60
2022-08-16T18:21:59.701Z,16.90
2022-08-16T18:24:29.235Z,15.50
2022-08-16T18:27:25.315Z,11.88
2022-08-16T18:29:51.215Z,10.07
2022-08-16T18:32:24.445Z,11.80
2022-08-16T18:34:55.069Z,13.88
2022-08-16T18:37:25.017Z,10.90
2022-08-16T18:39:54.019Z,10.57
2022-08-16T18:42:27.276Z,11.82
2022-08-16T18:44:57.664Z,22.23
2022-08-16T18:47:26.871Z,14.82
2022-08-16T18:49:55.886Z,11.68
2022-08-16T18:52:26.013Z,10.20
2022-08-16T18:54:58.894Z,8.40
2022-08-16T18:57:43.215Z,10.95
2022-08-16T19:00:16.575Z,10.48
2022-08-16T19:02:58.174Z,12.65
2022-08-16T19:05:31.288Z,16.58
2022-08-16T19:08:01.743Z,11.80
2022-08-16T19:10:31.836Z,12.45
2022-08-16T19:13:05.722Z,11.55
2022-08-16T19:15:37.550Z,12.05
2022-08-16T19:18:07.007Z,11.77
2022-08-16T19:20:36.798Z,14.90
2022-08-16T19:23:09.947Z,16.92
2022-08-16T19:25:46.631Z,14.98
2022-08-16T19:28:49.131Z,15.95
2022-08-16T19:31:17.483Z,15.85
2022-08-16T19:33:54.466Z,13.55
2022-08-16T19:36:31.662Z,15.45
2022-08-16T19:39:06.000Z,14.30
2022-08-16T19:41:37.179Z,13.75
2022-08-16T19:44:08.980Z,20.02
2022-08-16T19:46:41.782Z,15.02
2022-08-16T19:49:15.959Z,12.52
2022-08-16T19:51:46.223Z,13.13
2022-08-16T19:54:15.149Z,14.10
2022-08-16T19:56:44.131Z,12.57
2022-08-16T19:59:19.739Z,11.85
2022-08-16T20:01:52.551Z,13.30
2022-08-16T20:04:23.085Z,14.32
2022-08-16T20:06:53.227Z,13.15
2022-08-16T20:09:23.355Z,11.15
2022-08-16T20:11:54.250Z,12.82
2022-08-16T20:14:26.454Z,12.00
2022-08-16T20:16:59.967Z,15.68
2022-08-16T20:19:32.603Z,13.90
2022-08-16T20:22:09.426Z,14.35
2022-08-16T20:24:38.865Z,13.45
2022-08-16T20:27:10.031Z,13.80
2022-08-16T20:29:41.217Z,13.20
2022-08-16T20:32:15.716Z,14.27
2022-08-16T20:34:46.414Z,13.23
2022-08-16T20:37:16.748Z,14.93
2022-08-16T20:39:47.462Z,11.80
2022-08-16T20:42:19.512Z,11.35
2022-08-16T20:44:48.760Z,14.82
2022-08-16T20:47:19.845Z,13.02
2022-08-16T20:49:50.147Z,13.25
2022-08-16T20:52:22.166Z,13.15
2022-08-16T20:54:51.787Z,13.73
2022-08-16T20:57:21.512Z,12.05
2022-08-16T20:59:50.524Z,13.15
2022-08-16T21:02:27.678Z,12.05
2022-08-16T21:04:57.179Z,12.80
2022-08-16T21:07:28.704Z,13.43
2022-08-16T21:09:57.946Z,11.15
2022-08-16T21:12:27.725Z,12.73
2022-08-16T21:15:07.326Z,11.40
2022-08-16T21:17:37.616Z,12.80
2022-08-16T21:20:11.504Z,12.00
2022-08-16T21:22:41.288Z,10.70
2022-08-16T21:25:13.170Z,14.45
2022-08-16T21:28:39.085Z,10.95
2022-08-16T21:30:33.306Z,11.82
2022-08-16T21:33:09.163Z,13.65
2022-08-16T21:35:39.319Z,10.88
2022-08-16T21:38:29.083Z,11.65
2022-08-16T21:40:59.192Z,12.85
2022-08-16T21:43:32.088Z,14.75
2022-08-16T21:46:02.170Z,13.38
2022-08-16T21:48:35.985Z,14.30
2022-08-16T21:51:07.475Z,17.73
2022-08-16T21:53:37.894Z,14.13
2022-08-16T21:56:09.854Z,15.43
2022-08-16T21:58:46.619Z,16.17
2022-08-16T22:01:23.873Z,17.40
2022-08-16T22:04:01.711Z,15.48
2022-08-16T22:06:44.697Z,15.88
2022-08-16T22:09:16.400Z,14.25
2022-08-16T22:11:46.086Z,19.73
2022-08-16T22:14:15.397Z,15.48
2022-08-16T22:21:43.674Z,13.98
2022-08-16T22:26:43.539Z,15.48
2022-08-16T22:29:15.322Z,15.73
2022-08-16T22:31:45.195Z,15.45
2022-08-16T22:34:15.987Z,16.75
2022-08-16T22:36:45.182Z,21.98
2022-08-16T22:41:45.681Z,15.27
2022-08-16T22:44:15.566Z,16.67
2022-08-16T22:46:44.919Z,16.58
2022-08-16T22:49:15.574Z,16.65
2022-08-16T22:51:44.523Z,15.90
2022-08-16T22:57:03.229Z,16.25
2022-08-16T22:59:32.361Z,14.88
2022-08-16T23:02:03.372Z,13.77
2022-08-16T23:04:34.096Z,14.60
2022-08-16T23:07:03.677Z,16.40
2022-08-16T23:09:33.845Z,12.23
2022-08-16T23:12:07.306Z,16.67
2022-08-16T23:14:36.654Z,11.40
2022-08-16T23:17:05.793Z,13.40
2022-08-16T23:22:06.032Z,11.90
2022-08-16T23:24:37.096Z,13.75
2022-08-16T23:27:15.142Z,13.40
2022-08-16T23:32:14.403Z,12.23
2022-08-16T23:34:45.306Z,11.63
2022-08-16T23:37:14.405Z,14.15
2022-08-16T23:42:15.464Z,11.23
2022-08-16T23:45:05.365Z,13.40
2022-08-16T23:47:34.777Z,11.70
2022-08-16T23:50:06.012Z,13.98
2022-08-16T23:52:53.299Z,13.10
2022-08-16T23:55:23.384Z,14.53
2022-08-16T23:57:52.851Z,14.25
